Pagina principale
METAR-TAF:

METAR-TAF

Aeroporti :

Aeroporto Internazionale di Nouakchott

Nouakchott, Mauritania

latitudine: 18-18-36N, longitudine: 015-58-11W, altezza: 3 m

Osservazione

Il bollettino è stato emesso 27 minuti fa, alle 12:30 UTC
Vento 7 kt da nord/nord-ovest, variando fra ovest/nord-ovest e nord/nord-est
Temperature 29°C
Umidità 62%
Pressione 1015 hPa
Visibilità: 8000 m

METAR: GQNO 151230Z 33007KT 300V020 8000 NSC 29/21 Q1015 NOSIG

Ora: 12:57 (12:57 UTC)

Previsione

Il bollettino è stato emesso 1 ora e 57 minuti fa, alle 11:00 UTC
Previsione valida dal 15 alle 12 UTC al 16 alle 18 UTC
Vento 8 kt da ovest/sud-ovest
Visibilità: 8000 m
Evoluzione graduale
dal 15 alle 15 UTC al 15 alle 17 UTC
Vento 10 kt da nord-ovest
Temporaneamente
dal 16 alle 04 UTC al 16 alle 09 UTC
Nuvoloso ad un'altezza di 800 ft

TAF: GQNO 151100Z 1512/1618 25008KT 8000 NSC BECMG 1515/1517 31010KT TEMPO 1604/1609 BKN008

Osservazioni e previsioni meteorologiche di più di 4000 aeroporti (messaggi METAR e TAF).

Le stazioni disponibili sono rappresentate dai dischi gialli e rossi sulla carta.

Puntare il mouse per vedere il nome della stazione.

Clicca sopra per visualizzare le osservazioni e previsioni meteorologiche.

Per cambiare la mappa : fare clic sui pulsanti verdi con una croce nera per ingrandire, il pulsante verde con un trattino per diminuire, o sulla freccia verde per le mappe adiacenti.


METAR-TAF: